sensor_id;sensor_type;location;lat;lon;timestamp;temperature;humidity
25300;DHT22;13241;51.208;4.432;2023-03-31T00:00:19;12.40;99.90
25300;DHT22;13241;51.208;4.432;2023-03-31T00:02:46;12.40;99.90
25300;DHT22;13241;51.208;4.432;2023-03-31T00:05:13;12.40;99.90
25300;DHT22;13241;51.208;4.432;2023-03-31T00:07:44;12.50;99.90
25300;DHT22;13241;51.208;4.432;2023-03-31T00:10:11;12.50;99.90
25300;DHT22;13241;51.208;4.432;2023-03-31T00:12:45;12.50;99.90
25300;DHT22;13241;51.208;4.432;2023-03-31T00:15:12;12.60;99.90
25300;DHT22;13241;51.208;4.432;2023-03-31T00:17:39;12.60;99.90
25300;DHT22;13241;51.208;4.432;2023-03-31T00:20:06;12.60;99.90
25300;DHT22;13241;51.208;4.432;2023-03-31T00:22:38;12.60;99.90
25300;DHT22;13241;51.208;4.432;2023-03-31T00:25:08;12.70;99.90
25300;DHT22;13241;51.208;4.432;2023-03-31T00:27:36;12.50;99.90
25300;DHT22;13241;51.208;4.432;2023-03-31T00:30:04;12.70;99.90
25300;DHT22;13241;51.208;4.432;2023-03-31T00:32:31;12.60;99.90
25300;DHT22;13241;51.208;4.432;2023-03-31T00:34:59;12.80;99.90
25300;DHT22;13241;51.208;4.432;2023-03-31T00:37:28;12.50;99.90
25300;DHT22;13241;51.208;4.432;2023-03-31T00:39:56;12.60;99.90
25300;DHT22;13241;51.208;4.432;2023-03-31T00:42:23;12.60;99.90
25300;DHT22;13241;51.208;4.432;2023-03-31T00:47:51;12.60;99.90
25300;DHT22;13241;51.208;4.432;2023-03-31T00:50:26;12.50;99.90
25300;DHT22;13241;51.208;4.432;2023-03-31T00:53:04;12.50;99.90
25300;DHT22;13241;51.208;4.432;2023-03-31T00:55:39;12.50;99.90
25300;DHT22;13241;51.208;4.432;2023-03-31T00:58:08;12.50;99.90
25300;DHT22;13241;51.208;4.432;2023-03-31T01:00:41;12.50;99.90
25300;DHT22;13241;51.208;4.432;2023-03-31T01:03:08;12.50;99.90
25300;DHT22;13241;51.208;4.432;2023-03-31T01:05:42;12.50;99.90
25300;DHT22;13241;51.208;4.432;2023-03-31T01:08:10;12.50;99.90
25300;DHT22;13241;51.208;4.432;2023-03-31T01:10:44;12.40;99.90
25300;DHT22;13241;51.208;4.432;2023-03-31T01:13:13;12.40;99.90
25300;DHT22;13241;51.208;4.432;2023-03-31T01:15:41;12.40;99.90
25300;DHT22;13241;51.208;4.432;2023-03-31T01:18:09;12.40;99.90
25300;DHT22;13241;51.208;4.432;2023-03-31T01:26:57;12.30;99.90
25300;DHT22;13241;51.208;4.432;2023-03-31T01:32:31;12.20;99.90
25300;DHT22;13241;51.208;4.432;2023-03-31T01:36:05;12.20;99.90
25300;DHT22;13241;51.208;4.432;2023-03-31T01:38:48;12.20;99.90
25300;DHT22;13241;51.208;4.432;2023-03-31T01:44:30;12.10;99.90
25300;DHT22;13241;51.208;4.432;2023-03-31T01:49:44;12.10;99.90
25300;DHT22;13241;51.208;4.432;2023-03-31T01:57:43;12.00;99.90
25300;DHT22;13241;51.208;4.432;2023-03-31T02:00:15;12.00;99.90
25300;DHT22;13241;51.208;4.432;2023-03-31T02:02:50;12.00;99.90
25300;DHT22;13241;51.208;4.432;2023-03-31T02:05:24;12.00;99.90
25300;DHT22;13241;51.208;4.432;2023-03-31T02:07:58;11.90;99.90
25300;DHT22;13241;51.208;4.432;2023-03-31T02:10:30;11.80;99.90
25300;DHT22;13241;51.208;4.432;2023-03-31T02:12:59;11.80;99.90
25300;DHT22;13241;51.208;4.432;2023-03-31T02:15:34;11.80;99.90
25300;DHT22;13241;51.208;4.432;2023-03-31T02:18:06;11.80;99.90
25300;DHT22;13241;51.208;4.432;2023-03-31T02:20:40;11.80;99.90
25300;DHT22;13241;51.208;4.432;2023-03-31T02:23:10;11.80;99.90
25300;DHT22;13241;51.208;4.432;2023-03-31T02:25:44;11.80;99.90
25300;DHT22;13241;51.208;4.432;2023-03-31T02:28:17;11.70;99.90
25300;DHT22;13241;51.208;4.432;2023-03-31T02:33:33;11.70;99.90
25300;DHT22;13241;51.208;4.432;2023-03-31T02:36:00;11.70;99.90
25300;DHT22;13241;51.208;4.432;2023-03-31T02:38:29;11.60;99.90
25300;DHT22;13241;51.208;4.432;2023-03-31T02:40:57;11.60;99.90
25300;DHT22;13241;51.208;4.432;2023-03-31T02:43:24;11.70;99.90
25300;DHT22;13241;51.208;4.432;2023-03-31T02:45:52;11.70;99.90
25300;DHT22;13241;51.208;4.432;2023-03-31T02:48:31;11.70;99.90
25300;DHT22;13241;51.208;4.432;2023-03-31T02:56:56;11.70;99.90
25300;DHT22;13241;51.208;4.432;2023-03-31T03:11:07;11.60;99.90
25300;DHT22;13241;51.208;4.432;2023-03-31T03:13:48;11.50;99.90
25300;DHT22;13241;51.208;4.432;2023-03-31T03:16:29;11.50;99.90
25300;DHT22;13241;51.208;4.432;2023-03-31T03:19:02;11.40;99.90
25300;DHT22;13241;51.208;4.432;2023-03-31T03:21:30;11.40;99.90
25300;DHT22;13241;51.208;4.432;2023-03-31T03:23:58;11.40;99.90
25300;DHT22;13241;51.208;4.432;2023-03-31T03:26:25;11.40;99.90
25300;DHT22;13241;51.208;4.432;2023-03-31T03:28:56;11.40;99.90
25300;DHT22;13241;51.208;4.432;2023-03-31T03:31:23;11.30;99.90
25300;DHT22;13241;51.208;4.432;2023-03-31T03:33:52;11.30;99.90
25300;DHT22;13241;51.208;4.432;2023-03-31T03:36:19;11.30;99.90
25300;DHT22;13241;51.208;4.432;2023-03-31T03:38:46;11.30;99.90
25300;DHT22;13241;51.208;4.432;2023-03-31T03:41:12;11.20;99.90
25300;DHT22;13241;51.208;4.432;2023-03-31T03:43:39;11.20;99.90
25300;DHT22;13241;51.208;4.432;2023-03-31T03:46:06;11.20;99.90
25300;DHT22;13241;51.208;4.432;2023-03-31T03:48:33;11.20;99.90
25300;DHT22;13241;51.208;4.432;2023-03-31T03:51:00;11.20;99.90
25300;DHT22;13241;51.208;4.432;2023-03-31T03:53:28;11.10;99.90
25300;DHT22;13241;51.208;4.432;2023-03-31T03:55:54;11.10;99.90
25300;DHT22;13241;51.208;4.432;2023-03-31T03:58:21;11.10;99.90
25300;DHT22;13241;51.208;4.432;2023-03-31T04:00:48;11.10;99.90
25300;DHT22;13241;51.208;4.432;2023-03-31T04:03:15;11.20;99.90
25300;DHT22;13241;51.208;4.432;2023-03-31T04:05:42;11.10;99.90
25300;DHT22;13241;51.208;4.432;2023-03-31T04:08:09;11.00;99.90
25300;DHT22;13241;51.208;4.432;2023-03-31T04:10:36;11.00;99.90
25300;DHT22;13241;51.208;4.432;2023-03-31T04:13:03;11.00;99.90
25300;DHT22;13241;51.208;4.432;2023-03-31T04:15:29;11.00;99.90
25300;DHT22;13241;51.208;4.432;2023-03-31T04:17:56;11.00;99.90
25300;DHT22;13241;51.208;4.432;2023-03-31T04:20:23;11.00;99.90
25300;DHT22;13241;51.208;4.432;2023-03-31T04:22:53;11.00;99.90
25300;DHT22;13241;51.208;4.432;2023-03-31T04:25:20;11.00;99.90
25300;DHT22;13241;51.208;4.432;2023-03-31T04:27:50;11.00;99.90
25300;DHT22;13241;51.208;4.432;2023-03-31T04:30:21;11.00;99.90
25300;DHT22;13241;51.208;4.432;2023-03-31T04:32:54;11.00;99.90
25300;DHT22;13241;51.208;4.432;2023-03-31T04:35:24;11.00;99.90
25300;DHT22;13241;51.208;4.432;2023-03-31T04:37:52;11.00;99.90
25300;DHT22;13241;51.208;4.432;2023-03-31T04:40:25;11.00;99.90
25300;DHT22;13241;51.208;4.432;2023-03-31T04:42:51;11.00;99.90
25300;DHT22;13241;51.208;4.432;2023-03-31T04:45:18;11.10;99.90
25300;DHT22;13241;51.208;4.432;2023-03-31T04:47:45;11.10;99.90
25300;DHT22;13241;51.208;4.432;2023-03-31T04:50:12;11.00;99.90
25300;DHT22;13241;51.208;4.432;2023-03-31T04:52:43;11.10;99.90
25300;DHT22;13241;51.208;4.432;2023-03-31T04:55:10;11.10;99.90
25300;DHT22;13241;51.208;4.432;2023-03-31T04:57:37;11.10;99.90
25300;DHT22;13241;51.208;4.432;2023-03-31T05:00:04;11.10;99.90
25300;DHT22;13241;51.208;4.432;2023-03-31T05:02:33;11.10;99.90
25300;DHT22;13241;51.208;4.432;2023-03-31T05:05:00;11.10;99.90
25300;DHT22;13241;51.208;4.432;2023-03-31T05:07:27;11.20;99.90
25300;DHT22;13241;51.208;4.432;2023-03-31T05:09:54;11.20;99.90
25300;DHT22;13241;51.208;4.432;2023-03-31T05:12:21;11.20;99.90
25300;DHT22;13241;51.208;4.432;2023-03-31T05:14:47;11.30;99.90
25300;DHT22;13241;51.208;4.432;2023-03-31T05:17:15;11.20;99.90
25300;DHT22;13241;51.208;4.432;2023-03-31T05:19:43;11.20;99.90
25300;DHT22;13241;51.208;4.432;2023-03-31T05:22:10;11.20;99.90
25300;DHT22;13241;51.208;4.432;2023-03-31T05:24:37;11.10;99.90
25300;DHT22;13241;51.208;4.432;2023-03-31T05:27:04;11.10;99.90
25300;DHT22;13241;51.208;4.432;2023-03-31T05:29:31;11.10;99.90
25300;DHT22;13241;51.208;4.432;2023-03-31T05:31:57;11.10;99.90
25300;DHT22;13241;51.208;4.432;2023-03-31T05:34:24;11.10;99.90
25300;DHT22;13241;51.208;4.432;2023-03-31T05:36:51;11.00;99.90
25300;DHT22;13241;51.208;4.432;2023-03-31T05:39:19;11.00;99.90
25300;DHT22;13241;51.208;4.432;2023-03-31T05:41:46;10.80;99.90
25300;DHT22;13241;51.208;4.432;2023-03-31T05:44:14;10.80;99.90
25300;DHT22;13241;51.208;4.432;2023-03-31T05:46:41;10.80;99.90
25300;DHT22;13241;51.208;4.432;2023-03-31T05:49:08;10.80;99.90
25300;DHT22;13241;51.208;4.432;2023-03-31T05:51:36;10.80;99.90
25300;DHT22;13241;51.208;4.432;2023-03-31T05:54:03;10.80;99.90
25300;DHT22;13241;51.208;4.432;2023-03-31T05:56:31;10.90;99.90
25300;DHT22;13241;51.208;4.432;2023-03-31T05:58:59;11.00;99.90
25300;DHT22;13241;51.208;4.432;2023-03-31T06:01:27;11.00;99.90
25300;DHT22;13241;51.208;4.432;2023-03-31T06:03:56;11.00;99.90
25300;DHT22;13241;51.208;4.432;2023-03-31T06:06:23;11.10;99.90
25300;DHT22;13241;51.208;4.432;2023-03-31T06:08:50;11.00;99.90
25300;DHT22;13241;51.208;4.432;2023-03-31T06:11:19;11.10;99.90
25300;DHT22;13241;51.208;4.432;2023-03-31T06:13:47;11.20;99.90
25300;DHT22;13241;51.208;4.432;2023-03-31T06:16:15;11.20;99.90
25300;DHT22;13241;51.208;4.432;2023-03-31T06:18:44;11.30;99.90
25300;DHT22;13241;51.208;4.432;2023-03-31T06:21:13;11.20;99.90
25300;DHT22;13241;51.208;4.432;2023-03-31T06:23:40;11.30;99.90
25300;DHT22;13241;51.208;4.432;2023-03-31T06:26:10;11.30;99.90
25300;DHT22;13241;51.208;4.432;2023-03-31T06:28:38;11.50;99.90
25300;DHT22;13241;51.208;4.432;2023-03-31T06:31:10;11.40;99.90
25300;DHT22;13241;51.208;4.432;2023-03-31T06:33:39;11.50;99.90
25300;DHT22;13241;51.208;4.432;2023-03-31T06:36:07;11.50;99.90
25300;DHT22;13241;51.208;4.432;2023-03-31T06:38:36;11.60;99.90
25300;DHT22;13241;51.208;4.432;2023-03-31T06:41:05;11.60;99.90
25300;DHT22;13241;51.208;4.432;2023-03-31T06:43:34;11.60;99.90
25300;DHT22;13241;51.208;4.432;2023-03-31T06:46:00;11.60;99.90
25300;DHT22;13241;51.208;4.432;2023-03-31T06:48:27;11.70;99.90
25300;DHT22;13241;51.208;4.432;2023-03-31T06:50:58;11.70;99.90
25300;DHT22;13241;51.208;4.432;2023-03-31T06:53:25;11.70;99.90
25300;DHT22;13241;51.208;4.432;2023-03-31T06:55:52;11.70;99.90
25300;DHT22;13241;51.208;4.432;2023-03-31T06:58:19;11.80;99.90
25300;DHT22;13241;51.208;4.432;2023-03-31T07:00:46;11.80;99.90
25300;DHT22;13241;51.208;4.432;2023-03-31T07:03:13;11.80;99.90
25300;DHT22;13241;51.208;4.432;2023-03-31T07:05:48;11.90;99.90
25300;DHT22;13241;51.208;4.432;2023-03-31T07:08:15;11.90;99.90
25300;DHT22;13241;51.208;4.432;2023-03-31T07:10:46;12.00;99.90
25300;DHT22;13241;51.208;4.432;2023-03-31T07:13:14;12.00;99.90
25300;DHT22;13241;51.208;4.432;2023-03-31T07:15:42;12.10;99.90
25300;DHT22;13241;51.208;4.432;2023-03-31T07:18:09;12.10;99.90
25300;DHT22;13241;51.208;4.432;2023-03-31T07:20:36;12.10;99.90
25300;DHT22;13241;51.208;4.432;2023-03-31T07:23:06;12.20;99.90
25300;DHT22;13241;51.208;4.432;2023-03-31T07:25:34;12.20;99.90
25300;DHT22;13241;51.208;4.432;2023-03-31T07:28:04;12.20;99.90
25300;DHT22;13241;51.208;4.432;2023-03-31T07:30:32;12.20;99.90
25300;DHT22;13241;51.208;4.432;2023-03-31T07:33:00;12.30;99.90
25300;DHT22;13241;51.208;4.432;2023-03-31T07:35:28;12.40;99.90
25300;DHT22;13241;51.208;4.432;2023-03-31T07:37:57;12.40;99.90
25300;DHT22;13241;51.208;4.432;2023-03-31T07:40:26;12.50;99.90
25300;DHT22;13241;51.208;4.432;2023-03-31T07:42:54;12.50;99.90
25300;DHT22;13241;51.208;4.432;2023-03-31T07:45:23;12.60;99.90
25300;DHT22;13241;51.208;4.432;2023-03-31T07:47:51;12.60;99.90
25300;DHT22;13241;51.208;4.432;2023-03-31T07:50:19;12.70;99.90
25300;DHT22;13241;51.208;4.432;2023-03-31T07:52:49;12.60;99.90
25300;DHT22;13241;51.208;4.432;2023-03-31T07:55:17;12.70;99.90
25300;DHT22;13241;51.208;4.432;2023-03-31T07:57:45;12.70;99.90
25300;DHT22;13241;51.208;4.432;2023-03-31T08:00:14;12.70;99.90
25300;DHT22;13241;51.208;4.432;2023-03-31T08:02:42;12.90;99.90
25300;DHT22;13241;51.208;4.432;2023-03-31T08:05:15;12.80;99.90
25300;DHT22;13241;51.208;4.432;2023-03-31T08:07:44;12.80;99.90
25300;DHT22;13241;51.208;4.432;2023-03-31T08:10:19;12.90;99.90
25300;DHT22;13241;51.208;4.432;2023-03-31T08:12:47;13.00;99.90
25300;DHT22;13241;51.208;4.432;2023-03-31T08:15:14;13.10;99.90
25300;DHT22;13241;51.208;4.432;2023-03-31T08:17:42;13.10;99.90
25300;DHT22;13241;51.208;4.432;2023-03-31T08:20:09;13.20;99.90
25300;DHT22;13241;51.208;4.432;2023-03-31T08:22:37;13.40;99.90
25300;DHT22;13241;51.208;4.432;2023-03-31T08:25:05;13.60;99.90
25300;DHT22;13241;51.208;4.432;2023-03-31T08:27:35;13.70;99.90
25300;DHT22;13241;51.208;4.432;2023-03-31T08:30:02;13.70;99.90
25300;DHT22;13241;51.208;4.432;2023-03-31T08:32:31;13.80;99.90
25300;DHT22;13241;51.208;4.432;2023-03-31T08:34:58;13.60;99.90
25300;DHT22;13241;51.208;4.432;2023-03-31T08:37:26;13.80;99.90
25300;DHT22;13241;51.208;4.432;2023-03-31T08:39:54;13.80;99.90
25300;DHT22;13241;51.208;4.432;2023-03-31T08:42:49;13.80;99.90
25300;DHT22;13241;51.208;4.432;2023-03-31T08:45:29;13.90;99.90
25300;DHT22;13241;51.208;4.432;2023-03-31T08:47:59;13.90;99.90
25300;DHT22;13241;51.208;4.432;2023-03-31T08:50:32;14.00;99.90
25300;DHT22;13241;51.208;4.432;2023-03-31T08:55:58;14.30;99.90
25300;DHT22;13241;51.208;4.432;2023-03-31T08:58:49;14.60;99.90
25300;DHT22;13241;51.208;4.432;2023-03-31T09:07:28;14.70;99.90
25300;DHT22;13241;51.208;4.432;2023-03-31T09:10:29;14.80;99.90
25300;DHT22;13241;51.208;4.432;2023-03-31T09:13:03;14.90;99.90
25300;DHT22;13241;51.208;4.432;2023-03-31T09:16:01;15.00;99.90
25300;DHT22;13241;51.208;4.432;2023-03-31T09:18:36;15.00;99.90
25300;DHT22;13241;51.208;4.432;2023-03-31T09:21:30;15.00;99.90
25300;DHT22;13241;51.208;4.432;2023-03-31T09:26:42;14.80;99.90
25300;DHT22;13241;51.208;4.432;2023-03-31T09:29:15;14.90;99.90
25300;DHT22;13241;51.208;4.432;2023-03-31T09:31:45;14.70;99.90
25300;DHT22;13241;51.208;4.432;2023-03-31T09:34:15;14.70;99.90
25300;DHT22;13241;51.208;4.432;2023-03-31T09:36:43;14.60;99.90
25300;DHT22;13241;51.208;4.432;2023-03-31T09:39:12;14.60;99.90
25300;DHT22;13241;51.208;4.432;2023-03-31T09:41:43;14.50;99.90
25300;DHT22;13241;51.208;4.432;2023-03-31T09:44:35;14.50;99.90
25300;DHT22;13241;51.208;4.432;2023-03-31T09:47:05;14.40;99.90
25300;DHT22;13241;51.208;4.432;2023-03-31T09:49:38;14.20;99.90
25300;DHT22;13241;51.208;4.432;2023-03-31T09:54:53;14.00;99.90
25300;DHT22;13241;51.208;4.432;2023-03-31T09:57:40;13.80;99.90
25300;DHT22;13241;51.208;4.432;2023-03-31T10:02:50;13.70;99.90
25300;DHT22;13241;51.208;4.432;2023-03-31T10:05:29;13.80;99.90
25300;DHT22;13241;51.208;4.432;2023-03-31T10:10:52;13.90;99.90
25300;DHT22;13241;51.208;4.432;2023-03-31T10:13:25;14.00;99.90
25300;DHT22;13241;51.208;4.432;2023-03-31T10:16:00;14.10;99.90
25300;DHT22;13241;51.208;4.432;2023-03-31T10:18:41;14.20;99.90
25300;DHT22;13241;51.208;4.432;2023-03-31T10:21:21;14.20;99.90
25300;DHT22;13241;51.208;4.432;2023-03-31T10:23:50;14.20;99.90
25300;DHT22;13241;51.208;4.432;2023-03-31T10:26:26;14.20;99.90
25300;DHT22;13241;51.208;4.432;2023-03-31T10:28:54;14.10;99.90
25300;DHT22;13241;51.208;4.432;2023-03-31T10:31:25;14.10;99.90
25300;DHT22;13241;51.208;4.432;2023-03-31T10:33:53;14.10;99.90
25300;DHT22;13241;51.208;4.432;2023-03-31T10:36:28;14.20;99.90
25300;DHT22;13241;51.208;4.432;2023-03-31T10:38:56;14.40;99.90
25300;DHT22;13241;51.208;4.432;2023-03-31T10:41:27;14.70;99.90
25300;DHT22;13241;51.208;4.432;2023-03-31T10:43:57;14.90;99.90
25300;DHT22;13241;51.208;4.432;2023-03-31T10:46:51;15.00;99.90
25300;DHT22;13241;51.208;4.432;2023-03-31T10:51:58;14.90;99.90
25300;DHT22;13241;51.208;4.432;2023-03-31T10:54:26;14.80;99.90
25300;DHT22;13241;51.208;4.432;2023-03-31T10:56:55;14.80;99.90
25300;DHT22;13241;51.208;4.432;2023-03-31T11:07:58;14.70;99.90
25300;DHT22;13241;51.208;4.432;2023-03-31T11:13:25;14.60;99.90
25300;DHT22;13241;51.208;4.432;2023-03-31T11:27:11;14.40;99.90
25300;DHT22;13241;51.208;4.432;2023-03-31T11:32:28;14.60;99.90
25300;DHT22;13241;51.208;4.432;2023-03-31T11:35:22;14.60;99.90
25300;DHT22;13241;51.208;4.432;2023-03-31T11:41:03;14.80;99.90
25300;DHT22;13241;51.208;4.432;2023-03-31T11:43:35;14.90;99.90
25300;DHT22;13241;51.208;4.432;2023-03-31T11:46:27;14.90;99.90
25300;DHT22;13241;51.208;4.432;2023-03-31T11:57:12;14.80;99.90
25300;DHT22;13241;51.208;4.432;2023-03-31T11:59:42;14.70;99.90
25300;DHT22;13241;51.208;4.432;2023-03-31T12:02:15;14.70;99.90
25300;DHT22;13241;51.208;4.432;2023-03-31T12:04:51;14.70;99.90
25300;DHT22;13241;51.208;4.432;2023-03-31T12:07:29;14.60;99.90
25300;DHT22;13241;51.208;4.432;2023-03-31T12:10:11;14.60;99.90
25300;DHT22;13241;51.208;4.432;2023-03-31T12:12:43;14.70;99.90
25300;DHT22;13241;51.208;4.432;2023-03-31T12:15:18;14.70;99.90
25300;DHT22;13241;51.208;4.432;2023-03-31T12:17:58;14.60;99.90
25300;DHT22;13241;51.208;4.432;2023-03-31T12:20:28;14.60;99.90
25300;DHT22;13241;51.208;4.432;2023-03-31T12:22:58;14.40;99.90
25300;DHT22;13241;51.208;4.432;2023-03-31T12:25:50;14.00;99.90
25300;DHT22;13241;51.208;4.432;2023-03-31T12:28:17;14.00;99.90
25300;DHT22;13241;51.208;4.432;2023-03-31T12:30:46;14.00;99.90
25300;DHT22;13241;51.208;4.432;2023-03-31T12:33:27;13.90;99.90
25300;DHT22;13241;51.208;4.432;2023-03-31T12:41:09;13.80;99.90
25300;DHT22;13241;51.208;4.432;2023-03-31T12:55:01;14.10;99.90
25300;DHT22;13241;51.208;4.432;2023-03-31T12:57:35;14.10;99.90
25300;DHT22;13241;51.208;4.432;2023-03-31T13:02:39;14.00;99.90
25300;DHT22;13241;51.208;4.432;2023-03-31T13:08:05;13.90;99.90
25300;DHT22;13241;51.208;4.432;2023-03-31T13:10:57;13.90;99.90
25300;DHT22;13241;51.208;4.432;2023-03-31T13:13:25;13.70;99.90
25300;DHT22;13241;51.208;4.432;2023-03-31T13:15:54;13.80;99.90
25300;DHT22;13241;51.208;4.432;2023-03-31T13:18:22;13.70;99.90
25300;DHT22;13241;51.208;4.432;2023-03-31T13:21:03;13.70;99.90
25300;DHT22;13241;51.208;4.432;2023-03-31T13:23:34;13.70;99.90
25300;DHT22;13241;51.208;4.432;2023-03-31T13:26:02;13.60;99.90
25300;DHT22;13241;51.208;4.432;2023-03-31T13:28:40;13.70;99.90
25300;DHT22;13241;51.208;4.432;2023-03-31T13:31:10;14.10;99.90
25300;DHT22;13241;51.208;4.432;2023-03-31T13:44:47;14.30;99.90
25300;DHT22;13241;51.208;4.432;2023-03-31T13:47:32;14.30;99.90
25300;DHT22;13241;51.208;4.432;2023-03-31T13:58:48;14.00;99.90
25300;DHT22;13241;51.208;4.432;2023-03-31T14:09:35;13.70;99.90
25300;DHT22;13241;51.208;4.432;2023-03-31T14:14:46;13.70;99.90
25300;DHT22;13241;51.208;4.432;2023-03-31T14:17:14;13.90;99.90
25300;DHT22;13241;51.208;4.432;2023-03-31T14:20:57;13.70;99.90
25300;DHT22;13241;51.208;4.432;2023-03-31T14:26:13;13.60;99.90
25300;DHT22;13241;51.208;4.432;2023-03-31T14:31:24;13.60;99.90
25300;DHT22;13241;51.208;4.432;2023-03-31T14:36:57;13.60;99.90
25300;DHT22;13241;51.208;4.432;2023-03-31T14:39:30;13.60;99.90
25300;DHT22;13241;51.208;4.432;2023-03-31T14:42:08;13.40;99.90
25300;DHT22;13241;51.208;4.432;2023-03-31T14:44:36;13.40;99.90
25300;DHT22;13241;51.208;4.432;2023-03-31T14:47:05;13.30;99.90
25300;DHT22;13241;51.208;4.432;2023-03-31T14:49:37;13.20;99.90
25300;DHT22;13241;51.208;4.432;2023-03-31T14:52:16;13.20;99.90
25300;DHT22;13241;51.208;4.432;2023-03-31T14:54:45;13.30;99.90
25300;DHT22;13241;51.208;4.432;2023-03-31T14:57:19;13.30;99.90
25300;DHT22;13241;51.208;4.432;2023-03-31T14:59:50;13.30;99.90
25300;DHT22;13241;51.208;4.432;2023-03-31T15:03:04;13.30;99.90
25300;DHT22;13241;51.208;4.432;2023-03-31T15:05:31;13.30;99.90
25300;DHT22;13241;51.208;4.432;2023-03-31T15:08:02;13.30;99.90
25300;DHT22;13241;51.208;4.432;2023-03-31T15:10:35;13.20;99.90
25300;DHT22;13241;51.208;4.432;2023-03-31T15:13:10;13.20;99.90
25300;DHT22;13241;51.208;4.432;2023-03-31T15:15:41;13.10;99.90
25300;DHT22;13241;51.208;4.432;2023-03-31T15:18:11;13.10;99.90
25300;DHT22;13241;51.208;4.432;2023-03-31T15:20:42;13.00;99.90
25300;DHT22;13241;51.208;4.432;2023-03-31T15:23:24;13.00;99.90
25300;DHT22;13241;51.208;4.432;2023-03-31T15:26:02;13.00;99.90
25300;DHT22;13241;51.208;4.432;2023-03-31T15:29:03;13.00;99.90
25300;DHT22;13241;51.208;4.432;2023-03-31T15:31:31;12.90;99.90
25300;DHT22;13241;51.208;4.432;2023-03-31T15:33:59;12.70;99.90
25300;DHT22;13241;51.208;4.432;2023-03-31T15:36:27;12.50;99.90
25300;DHT22;13241;51.208;4.432;2023-03-31T15:38:57;12.70;99.90
25300;DHT22;13241;51.208;4.432;2023-03-31T15:41:29;12.60;99.90
25300;DHT22;13241;51.208;4.432;2023-03-31T15:49:10;12.50;99.90
25300;DHT22;13241;51.208;4.432;2023-03-31T15:51:46;12.60;99.90
25300;DHT22;13241;51.208;4.432;2023-03-31T15:54:34;12.50;99.90
25300;DHT22;13241;51.208;4.432;2023-03-31T15:57:03;12.50;99.90
25300;DHT22;13241;51.208;4.432;2023-03-31T15:59:45;12.50;99.90
25300;DHT22;13241;51.208;4.432;2023-03-31T16:02:24;12.50;99.90
25300;DHT22;13241;51.208;4.432;2023-03-31T16:04:57;12.40;99.90
25300;DHT22;13241;51.208;4.432;2023-03-31T16:07:31;12.40;99.90
25300;DHT22;13241;51.208;4.432;2023-03-31T16:10:14;12.40;99.90
25300;DHT22;13241;51.208;4.432;2023-03-31T16:12:50;12.40;99.90
25300;DHT22;13241;51.208;4.432;2023-03-31T16:15:22;12.40;99.90
25300;DHT22;13241;51.208;4.432;2023-03-31T16:18:02;12.40;99.90
25300;DHT22;13241;51.208;4.432;2023-03-31T16:20:35;12.30;99.90
25300;DHT22;13241;51.208;4.432;2023-03-31T16:23:15;12.20;99.90
25300;DHT22;13241;51.208;4.432;2023-03-31T16:25:43;12.30;99.90
25300;DHT22;13241;51.208;4.432;2023-03-31T16:28:16;12.30;99.90
25300;DHT22;13241;51.208;4.432;2023-03-31T16:30:44;12.30;99.90
25300;DHT22;13241;51.208;4.432;2023-03-31T16:33:18;12.30;99.90
25300;DHT22;13241;51.208;4.432;2023-03-31T16:35:47;12.30;99.90
25300;DHT22;13241;51.208;4.432;2023-03-31T16:38:17;12.20;99.90
25300;DHT22;13241;51.208;4.432;2023-03-31T16:40:46;12.30;99.90
25300;DHT22;13241;51.208;4.432;2023-03-31T16:43:16;12.40;99.90
25300;DHT22;13241;51.208;4.432;2023-03-31T16:45:45;12.40;99.90
25300;DHT22;13241;51.208;4.432;2023-03-31T16:48:14;12.40;99.90
25300;DHT22;13241;51.208;4.432;2023-03-31T16:50:45;12.40;99.90
25300;DHT22;13241;51.208;4.432;2023-03-31T16:53:13;12.40;99.90
25300;DHT22;13241;51.208;4.432;2023-03-31T16:55:41;12.40;99.90
25300;DHT22;13241;51.208;4.432;2023-03-31T16:58:10;12.30;99.90
25300;DHT22;13241;51.208;4.432;2023-03-31T17:00:37;12.40;99.90
25300;DHT22;13241;51.208;4.432;2023-03-31T17:03:06;12.40;99.90
25300;DHT22;13241;51.208;4.432;2023-03-31T17:05:38;12.40;99.90
25300;DHT22;13241;51.208;4.432;2023-03-31T17:08:06;12.40;99.90
25300;DHT22;13241;51.208;4.432;2023-03-31T17:10:34;12.30;99.90
25300;DHT22;13241;51.208;4.432;2023-03-31T17:13:02;12.20;99.90
25300;DHT22;13241;51.208;4.432;2023-03-31T17:15:28;12.30;99.90
25300;DHT22;13241;51.208;4.432;2023-03-31T17:17:56;12.40;99.90
25300;DHT22;13241;51.208;4.432;2023-03-31T17:20:25;12.30;99.90
25300;DHT22;13241;51.208;4.432;2023-03-31T17:22:52;12.10;99.90
25300;DHT22;13241;51.208;4.432;2023-03-31T17:25:20;12.10;99.90
25300;DHT22;13241;51.208;4.432;2023-03-31T17:27:47;12.00;99.90
25300;DHT22;13241;51.208;4.432;2023-03-31T17:30:15;12.00;99.90
25300;DHT22;13241;51.208;4.432;2023-03-31T17:32:43;12.00;99.90
25300;DHT22;13241;51.208;4.432;2023-03-31T17:35:10;12.00;99.90
25300;DHT22;13241;51.208;4.432;2023-03-31T17:37:37;11.90;99.90
25300;DHT22;13241;51.208;4.432;2023-03-31T17:40:04;12.00;99.90
25300;DHT22;13241;51.208;4.432;2023-03-31T17:42:32;11.90;99.90
25300;DHT22;13241;51.208;4.432;2023-03-31T17:44:58;11.90;99.90
25300;DHT22;13241;51.208;4.432;2023-03-31T17:47:29;11.90;99.90
25300;DHT22;13241;51.208;4.432;2023-03-31T17:49:56;11.80;99.90
25300;DHT22;13241;51.208;4.432;2023-03-31T17:52:23;11.80;99.90
25300;DHT22;13241;51.208;4.432;2023-03-31T17:54:50;11.80;99.90
25300;DHT22;13241;51.208;4.432;2023-03-31T17:57:17;11.80;99.90
25300;DHT22;13241;51.208;4.432;2023-03-31T17:59:44;11.80;99.90
25300;DHT22;13241;51.208;4.432;2023-03-31T18:02:12;11.70;99.90
25300;DHT22;13241;51.208;4.432;2023-03-31T18:04:40;11.70;99.90
25300;DHT22;13241;51.208;4.432;2023-03-31T18:07:07;11.70;99.90
25300;DHT22;13241;51.208;4.432;2023-03-31T18:09:34;11.70;99.90
25300;DHT22;13241;51.208;4.432;2023-03-31T18:12:02;11.60;99.90
25300;DHT22;13241;51.208;4.432;2023-03-31T18:14:29;11.60;99.90
25300;DHT22;13241;51.208;4.432;2023-03-31T18:16:56;11.60;99.90
25300;DHT22;13241;51.208;4.432;2023-03-31T18:19:23;11.50;99.90
25300;DHT22;13241;51.208;4.432;2023-03-31T18:21:50;11.50;99.90
25300;DHT22;13241;51.208;4.432;2023-03-31T18:24:20;11.50;99.90
25300;DHT22;13241;51.208;4.432;2023-03-31T18:26:50;11.50;99.90
25300;DHT22;13241;51.208;4.432;2023-03-31T18:29:18;11.50;99.90
25300;DHT22;13241;51.208;4.432;2023-03-31T18:31:44;11.50;99.90
25300;DHT22;13241;51.208;4.432;2023-03-31T18:34:11;11.50;99.90
25300;DHT22;13241;51.208;4.432;2023-03-31T18:36:39;11.50;99.90
25300;DHT22;13241;51.208;4.432;2023-03-31T18:39:08;11.50;99.90
25300;DHT22;13241;51.208;4.432;2023-03-31T18:41:44;11.50;99.90
25300;DHT22;13241;51.208;4.432;2023-03-31T18:44:13;11.60;99.90